sensor_id;sensor_type;location;lat;lon;timestamp;temperature;humidity
1594;DHT22;790;47.000;16.084;2022-12-07T00:03:21;5.80;99.90
1594;DHT22;790;47.000;16.084;2022-12-07T00:09:30;5.60;99.90
1594;DHT22;790;47.000;16.084;2022-12-07T00:15:38;5.70;99.90
1594;DHT22;790;47.000;16.084;2022-12-07T00:21:46;5.70;99.90
1594;DHT22;790;47.000;16.084;2022-12-07T00:27:55;5.70;99.90
1594;DHT22;790;47.000;16.084;2022-12-07T00:34:04;5.70;99.90
1594;DHT22;790;47.000;16.084;2022-12-07T00:40:12;5.70;99.90
1594;DHT22;790;47.000;16.084;2022-12-07T00:50:36;5.50;99.90
1594;DHT22;790;47.000;16.084;2022-12-07T00:56:56;5.50;99.90
1594;DHT22;790;47.000;16.084;2022-12-07T01:03:18;5.20;99.90
1594;DHT22;790;47.000;16.084;2022-12-07T01:09:41;5.20;99.90
1594;DHT22;790;47.000;16.084;2022-12-07T01:16:04;5.10;99.90
1594;DHT22;790;47.000;16.084;2022-12-07T01:22:26;5.10;99.90
1594;DHT22;790;47.000;16.084;2022-12-07T01:28:49;5.30;99.90
1594;DHT22;790;47.000;16.084;2022-12-07T01:35:10;5.40;99.90
1594;DHT22;790;47.000;16.084;2022-12-07T01:41:34;5.20;99.90
1594;DHT22;790;47.000;16.084;2022-12-07T01:52:23;5.00;99.90
1594;DHT22;790;47.000;16.084;2022-12-07T01:58:31;5.10;99.90
1594;DHT22;790;47.000;16.084;2022-12-07T02:04:39;5.00;99.90
1594;DHT22;790;47.000;16.084;2022-12-07T02:10:48;5.00;99.90
1594;DHT22;790;47.000;16.084;2022-12-07T02:17:06;5.10;99.90
1594;DHT22;790;47.000;16.084;2022-12-07T02:23:48;4.90;99.90
1594;DHT22;790;47.000;16.084;2022-12-07T02:30:04;4.80;99.90
1594;DHT22;790;47.000;16.084;2022-12-07T02:36:17;4.80;99.90
1594;DHT22;790;47.000;16.084;2022-12-07T02:42:32;4.80;99.90
1594;DHT22;790;47.000;16.084;2022-12-07T02:53:32;4.90;99.90
1594;DHT22;790;47.000;16.084;2022-12-07T03:00:02;4.80;99.90
1594;DHT22;790;47.000;16.084;2022-12-07T03:06:27;4.80;99.90
1594;DHT22;790;47.000;16.084;2022-12-07T03:13:02;4.90;99.90
1594;DHT22;790;47.000;16.084;2022-12-07T03:19:26;4.90;99.90
1594;DHT22;790;47.000;16.084;2022-12-07T03:25:50;4.90;99.90
1594;DHT22;790;47.000;16.084;2022-12-07T03:32:21;4.80;99.90
1594;DHT22;790;47.000;16.084;2022-12-07T03:38:48;4.60;99.90
1594;DHT22;790;47.000;16.084;2022-12-07T03:45:11;4.50;99.90
1594;DHT22;790;47.000;16.084;2022-12-07T03:56:29;4.50;99.90
1594;DHT22;790;47.000;16.084;2022-12-07T04:02:37;4.50;99.90
1594;DHT22;790;47.000;16.084;2022-12-07T04:08:46;4.50;99.90
1594;DHT22;790;47.000;16.084;2022-12-07T04:14:55;4.20;99.90
1594;DHT22;790;47.000;16.084;2022-12-07T04:21:03;4.10;99.90
1594;DHT22;790;47.000;16.084;2022-12-07T04:27:11;4.00;99.90
1594;DHT22;790;47.000;16.084;2022-12-07T04:33:22;4.00;99.90
1594;DHT22;790;47.000;16.084;2022-12-07T04:39:31;3.90;99.90
1594;DHT22;790;47.000;16.084;2022-12-07T04:45:39;3.90;99.90
1594;DHT22;790;47.000;16.084;2022-12-07T04:56:12;4.00;99.90
1594;DHT22;790;47.000;16.084;2022-12-07T05:02:34;4.10;99.90
1594;DHT22;790;47.000;16.084;2022-12-07T05:08:55;4.10;99.90
1594;DHT22;790;47.000;16.084;2022-12-07T05:15:17;4.10;99.90
1594;DHT22;790;47.000;16.084;2022-12-07T05:21:38;4.20;99.90
1594;DHT22;790;47.000;16.084;2022-12-07T05:27:59;4.30;99.90
1594;DHT22;790;47.000;16.084;2022-12-07T05:34:22;4.40;99.90
1594;DHT22;790;47.000;16.084;2022-12-07T05:40:44;4.60;99.90
1594;DHT22;790;47.000;16.084;2022-12-07T05:47:06;4.60;99.90
1594;DHT22;790;47.000;16.084;2022-12-07T05:57:53;4.60;99.90
1594;DHT22;790;47.000;16.084;2022-12-07T06:04:30;4.70;99.90
1594;DHT22;790;47.000;16.084;2022-12-07T06:10:38;4.80;99.90
1594;DHT22;790;47.000;16.084;2022-12-07T06:16:47;4.80;99.90
1594;DHT22;790;47.000;16.084;2022-12-07T06:22:55;4.80;99.90
1594;DHT22;790;47.000;16.084;2022-12-07T06:29:03;4.90;99.90
1594;DHT22;790;47.000;16.084;2022-12-07T06:35:12;4.90;99.90
1594;DHT22;790;47.000;16.084;2022-12-07T06:41:20;4.90;99.90
1594;DHT22;790;47.000;16.084;2022-12-07T06:47:28;4.90;99.90
1594;DHT22;790;47.000;16.084;2022-12-07T06:58:02;5.10;99.90
1594;DHT22;790;47.000;16.084;2022-12-07T07:04:23;5.00;99.90
1594;DHT22;790;47.000;16.084;2022-12-07T07:10:45;4.90;99.90
1594;DHT22;790;47.000;16.084;2022-12-07T07:17:07;4.80;99.90
1594;DHT22;790;47.000;16.084;2022-12-07T07:23:29;4.80;99.90
1594;DHT22;790;47.000;16.084;2022-12-07T07:29:50;4.80;99.90
1594;DHT22;790;47.000;16.084;2022-12-07T07:36:13;4.80;99.90
1594;DHT22;790;47.000;16.084;2022-12-07T07:42:35;4.80;99.90
1594;DHT22;790;47.000;16.084;2022-12-07T07:48:57;4.80;99.90
1594;DHT22;790;47.000;16.084;2022-12-07T07:59:45;4.70;99.90
1594;DHT22;790;47.000;16.084;2022-12-07T08:05:53;4.70;99.90
1594;DHT22;790;47.000;16.084;2022-12-07T08:12:01;4.60;99.90
1594;DHT22;790;47.000;16.084;2022-12-07T08:18:10;4.80;99.90
1594;DHT22;790;47.000;16.084;2022-12-07T08:24:18;4.90;99.90
1594;DHT22;790;47.000;16.084;2022-12-07T08:30:26;4.90;99.90
1594;DHT22;790;47.000;16.084;2022-12-07T08:36:37;5.00;99.90
1594;DHT22;790;47.000;16.084;2022-12-07T08:42:48;5.10;99.90
1594;DHT22;790;47.000;16.084;2022-12-07T08:48:58;5.10;99.90
1594;DHT22;790;47.000;16.084;2022-12-07T08:59:22;5.10;99.90
1594;DHT22;790;47.000;16.084;2022-12-07T09:05:43;5.20;99.90
1594;DHT22;790;47.000;16.084;2022-12-07T09:12:05;5.40;99.90
1594;DHT22;790;47.000;16.084;2022-12-07T09:18:28;5.50;99.90
1594;DHT22;790;47.000;16.084;2022-12-07T09:24:50;5.50;99.90
1594;DHT22;790;47.000;16.084;2022-12-07T09:31:11;5.60;99.90
1594;DHT22;790;47.000;16.084;2022-12-07T09:37:34;5.60;99.90
1594;DHT22;790;47.000;16.084;2022-12-07T09:44:02;5.50;99.90
1594;DHT22;790;47.000;16.084;2022-12-07T09:50:26;5.40;99.90
1594;DHT22;790;47.000;16.084;2022-12-07T10:01:14;5.50;99.90
1594;DHT22;790;47.000;16.084;2022-12-07T10:07:22;5.50;99.90
1594;DHT22;790;47.000;16.084;2022-12-07T10:13:38;5.50;99.90
1594;DHT22;790;47.000;16.084;2022-12-07T10:19:47;5.60;99.90
1594;DHT22;790;47.000;16.084;2022-12-07T10:25:55;5.50;99.90
1594;DHT22;790;47.000;16.084;2022-12-07T10:32:05;5.60;99.90
1594;DHT22;790;47.000;16.084;2022-12-07T10:38:17;5.70;99.90
1594;DHT22;790;47.000;16.084;2022-12-07T10:44:26;5.70;99.90
1594;DHT22;790;47.000;16.084;2022-12-07T10:51:02;5.70;99.90
1594;DHT22;790;47.000;16.084;2022-12-07T11:02:24;5.80;99.90
1594;DHT22;790;47.000;16.084;2022-12-07T11:08:56;5.90;99.90
1594;DHT22;790;47.000;16.084;2022-12-07T11:15:22;5.80;99.90
1594;DHT22;790;47.000;16.084;2022-12-07T11:21:55;5.80;99.90
1594;DHT22;790;47.000;16.084;2022-12-07T11:28:27;5.70;99.90
1594;DHT22;790;47.000;16.084;2022-12-07T11:34:59;5.90;99.90
1594;DHT22;790;47.000;16.084;2022-12-07T11:41:28;6.00;99.90
1594;DHT22;790;47.000;16.084;2022-12-07T11:47:55;6.20;99.90
1594;DHT22;790;47.000;16.084;2022-12-07T11:54:21;6.20;99.90
1594;DHT22;790;47.000;16.084;2022-12-07T12:01:14;6.00;99.90
1594;DHT22;790;47.000;16.084;2022-12-07T12:07:36;6.00;99.90
1594;DHT22;790;47.000;16.084;2022-12-07T12:14:29;6.00;99.90
1594;DHT22;790;47.000;16.084;2022-12-07T12:20:58;6.20;99.90
1594;DHT22;790;47.000;16.084;2022-12-07T12:27:25;6.00;99.90
1594;DHT22;790;47.000;16.084;2022-12-07T12:33:49;6.10;99.90
1594;DHT22;790;47.000;16.084;2022-12-07T12:40:52;6.10;99.90
1594;DHT22;790;47.000;16.084;2022-12-07T12:47:52;6.00;99.90
1594;DHT22;790;47.000;16.084;2022-12-07T12:54:15;6.10;99.90
1594;DHT22;790;47.000;16.084;2022-12-07T13:05:31;6.20;99.90
1594;DHT22;790;47.000;16.084;2022-12-07T13:11:43;6.10;99.90
1594;DHT22;790;47.000;16.084;2022-12-07T13:18:03;6.10;99.90
1594;DHT22;790;47.000;16.084;2022-12-07T13:24:13;6.10;99.90
1594;DHT22;790;47.000;16.084;2022-12-07T13:30:21;6.20;99.90
1594;DHT22;790;47.000;16.084;2022-12-07T13:36:31;6.30;99.90
1594;DHT22;790;47.000;16.084;2022-12-07T13:42:43;6.30;99.90
1594;DHT22;790;47.000;16.084;2022-12-07T13:48:52;6.40;99.90
1594;DHT22;790;47.000;16.084;2022-12-07T13:55:05;6.40;99.90
1594;DHT22;790;47.000;16.084;2022-12-07T14:05:42;6.40;99.90
1594;DHT22;790;47.000;16.084;2022-12-07T14:12:06;6.40;99.90
1594;DHT22;790;47.000;16.084;2022-12-07T14:18:28;6.30;99.90
1594;DHT22;790;47.000;16.084;2022-12-07T14:24:57;6.30;99.90
1594;DHT22;790;47.000;16.084;2022-12-07T14:31:24;6.30;99.90
1594;DHT22;790;47.000;16.084;2022-12-07T14:37:46;6.30;99.90
1594;DHT22;790;47.000;16.084;2022-12-07T14:44:11;6.20;99.90
1594;DHT22;790;47.000;16.084;2022-12-07T14:50:36;6.30;99.90
1594;DHT22;790;47.000;16.084;2022-12-07T14:56:58;6.30;99.90
1594;DHT22;790;47.000;16.084;2022-12-07T15:07:46;6.20;99.90
1594;DHT22;790;47.000;16.084;2022-12-07T15:13:54;6.20;99.90
1594;DHT22;790;47.000;16.084;2022-12-07T15:20:17;6.20;99.90
1594;DHT22;790;47.000;16.084;2022-12-07T15:26:26;6.20;99.90
1594;DHT22;790;47.000;16.084;2022-12-07T15:32:34;6.30;99.90
1594;DHT22;790;47.000;16.084;2022-12-07T15:38:42;6.20;99.90
1594;DHT22;790;47.000;16.084;2022-12-07T15:44:51;6.20;99.90
1594;DHT22;790;47.000;16.084;2022-12-07T15:51:15;6.20;99.90
1594;DHT22;790;47.000;16.084;2022-12-07T15:57:24;6.10;99.90
1594;DHT22;790;47.000;16.084;2022-12-07T16:07:57;6.00;99.90
1594;DHT22;790;47.000;16.084;2022-12-07T16:14:19;5.90;99.90
1594;DHT22;790;47.000;16.084;2022-12-07T16:20:41;5.90;99.90
1594;DHT22;790;47.000;16.084;2022-12-07T16:27:04;5.80;99.90
1594;DHT22;790;47.000;16.084;2022-12-07T16:33:25;5.70;99.90
1594;DHT22;790;47.000;16.084;2022-12-07T16:39:47;5.80;99.90
1594;DHT22;790;47.000;16.084;2022-12-07T16:46:30;5.90;99.90
1594;DHT22;790;47.000;16.084;2022-12-07T16:52:52;5.80;99.90
1594;DHT22;790;47.000;16.084;2022-12-07T16:59:23;5.80;99.90
1594;DHT22;790;47.000;16.084;2022-12-07T17:10:11;5.90;99.90
1594;DHT22;790;47.000;16.084;2022-12-07T17:16:18;5.90;99.90
1594;DHT22;790;47.000;16.084;2022-12-07T17:22:26;5.80;99.90
1594;DHT22;790;47.000;16.084;2022-12-07T17:28:36;5.80;99.90
1594;DHT22;790;47.000;16.084;2022-12-07T17:34:44;5.70;99.90
1594;DHT22;790;47.000;16.084;2022-12-07T17:40:52;5.80;99.90
1594;DHT22;790;47.000;16.084;2022-12-07T17:47:02;5.80;99.90
1594;DHT22;790;47.000;16.084;2022-12-07T17:53:11;5.80;99.90
1594;DHT22;790;47.000;16.084;2022-12-07T17:59:19;5.70;99.90
1594;DHT22;790;47.000;16.084;2022-12-07T18:09:42;5.60;99.90
1594;DHT22;790;47.000;16.084;2022-12-07T18:16:04;5.50;99.90
1594;DHT22;790;47.000;16.084;2022-12-07T18:22:26;5.40;99.90
1594;DHT22;790;47.000;16.084;2022-12-07T18:28:49;5.40;99.90
1594;DHT22;790;47.000;16.084;2022-12-07T18:35:11;5.50;99.90
1594;DHT22;790;47.000;16.084;2022-12-07T18:41:35;5.50;99.90
1594;DHT22;790;47.000;16.084;2022-12-07T18:47:58;5.50;99.90
1594;DHT22;790;47.000;16.084;2022-12-07T18:54:20;5.40;99.90
1594;DHT22;790;47.000;16.084;2022-12-07T19:00:41;5.50;99.90
1594;DHT22;790;47.000;16.084;2022-12-07T19:11:28;5.50;99.90
1594;DHT22;790;47.000;16.084;2022-12-07T19:17:54;5.60;99.90
1594;DHT22;790;47.000;16.084;2022-12-07T19:24:03;5.50;99.90
1594;DHT22;790;47.000;16.084;2022-12-07T19:30:13;5.40;99.90
1594;DHT22;790;47.000;16.084;2022-12-07T19:36:21;5.40;99.90
1594;DHT22;790;47.000;16.084;2022-12-07T19:42:29;5.40;99.90
1594;DHT22;790;47.000;16.084;2022-12-07T19:48:42;5.40;99.90
1594;DHT22;790;47.000;16.084;2022-12-07T19:54:49;5.50;99.90
1594;DHT22;790;47.000;16.084;2022-12-07T20:01:01;5.40;99.90
1594;DHT22;790;47.000;16.084;2022-12-07T20:11:35;5.40;99.90
1594;DHT22;790;47.000;16.084;2022-12-07T20:18:14;5.30;99.90
1594;DHT22;790;47.000;16.084;2022-12-07T20:24:35;5.20;99.90
1594;DHT22;790;47.000;16.084;2022-12-07T20:30:57;5.10;99.90
1594;DHT22;790;47.000;16.084;2022-12-07T20:37:18;5.00;99.90
1594;DHT22;790;47.000;16.084;2022-12-07T20:43:39;4.90;99.90
1594;DHT22;790;47.000;16.084;2022-12-07T20:50:02;4.80;99.90
1594;DHT22;790;47.000;16.084;2022-12-07T20:56:24;4.60;99.90
1594;DHT22;790;47.000;16.084;2022-12-07T21:02:46;4.50;99.90
1594;DHT22;790;47.000;16.084;2022-12-07T21:13:32;4.40;99.90
1594;DHT22;790;47.000;16.084;2022-12-07T21:19:41;4.20;99.90
1594;DHT22;790;47.000;16.084;2022-12-07T21:25:49;4.20;99.90
1594;DHT22;790;47.000;16.084;2022-12-07T21:31:59;4.20;99.90
1594;DHT22;790;47.000;16.084;2022-12-07T21:38:06;4.00;99.90
1594;DHT22;790;47.000;16.084;2022-12-07T21:44:14;3.90;99.90
1594;DHT22;790;47.000;16.084;2022-12-07T21:50:23;4.00;99.90
1594;DHT22;790;47.000;16.084;2022-12-07T21:56:33;4.00;99.90
1594;DHT22;790;47.000;16.084;2022-12-07T22:02:41;4.20;99.90
1594;DHT22;790;47.000;16.084;2022-12-07T22:13:05;4.30;99.90
1594;DHT22;790;47.000;16.084;2022-12-07T22:19:27;4.40;99.90
1594;DHT22;790;47.000;16.084;2022-12-07T22:25:48;4.30;99.90
1594;DHT22;790;47.000;16.084;2022-12-07T22:32:11;4.40;99.90
1594;DHT22;790;47.000;16.084;2022-12-07T22:38:32;4.40;99.90
1594;DHT22;790;47.000;16.084;2022-12-07T22:44:54;4.50;99.90
1594;DHT22;790;47.000;16.084;2022-12-07T22:51:24;4.30;99.90
1594;DHT22;790;47.000;16.084;2022-12-07T22:57:45;4.40;99.90
1594;DHT22;790;47.000;16.084;2022-12-07T23:04:06;4.40;99.90
1594;DHT22;790;47.000;16.084;2022-12-07T23:14:52;4.50;99.90
1594;DHT22;790;47.000;16.084;2022-12-07T23:21:00;4.60;99.90
1594;DHT22;790;47.000;16.084;2022-12-07T23:27:08;4.60;99.90
1594;DHT22;790;47.000;16.084;2022-12-07T23:33:17;4.50;99.90
1594;DHT22;790;47.000;16.084;2022-12-07T23:39:25;4.40;99.90
1594;DHT22;790;47.000;16.084;2022-12-07T23:45:33;4.30;99.90
1594;DHT22;790;47.000;16.084;2022-12-07T23:51:42;4.10;99.90
1594;DHT22;790;47.000;16.084;2022-12-07T23:57:50;4.30;99.90
